createdAt,value
2023-04-06T00:01:19.841Z,73.13
2023-04-06T00:03:47.757Z,72.61
2023-04-06T00:06:17.186Z,72.30
2023-04-06T00:08:46.030Z,73.46
2023-04-06T00:11:15.968Z,73.62
2023-04-06T00:13:44.093Z,73.88
2023-04-06T00:16:12.108Z,73.77
2023-04-06T00:18:40.700Z,74.00
2023-04-06T00:21:08.612Z,73.30
2023-04-06T00:23:36.809Z,73.61
2023-04-06T00:26:05.016Z,73.55
2023-04-06T00:28:33.141Z,73.02
2023-04-06T00:31:01.621Z,71.65
2023-04-06T00:33:29.643Z,71.88
2023-04-06T00:35:57.770Z,71.13
2023-04-06T00:38:26.021Z,71.24
2023-04-06T00:40:53.927Z,71.50
2023-04-06T00:43:22.123Z,70.66
2023-04-06T00:45:50.493Z,71.77
2023-04-06T00:48:18.602Z,72.38
2023-04-06T00:50:46.826Z,72.70
2023-04-06T00:53:14.766Z,72.11
2023-04-06T00:55:43.010Z,72.02
2023-04-06T00:58:11.184Z,71.43
2023-04-06T01:00:49.876Z,71.26
2023-04-06T01:03:23.692Z,70.86
2023-04-06T01:05:56.948Z,71.44
2023-04-06T01:08:28.098Z,72.01
2023-04-06T01:11:08.505Z,72.26
2023-04-06T01:13:38.401Z,71.91
2023-04-06T01:16:11.145Z,71.67
2023-04-06T01:19:01.870Z,71.43
2023-04-06T01:21:32.984Z,72.79
2023-04-06T01:24:27.125Z,71.84
2023-04-06T01:27:05.091Z,72.39
2023-04-06T01:29:53.669Z,71.38
2023-04-06T01:32:35.706Z,71.94
2023-04-06T01:35:03.969Z,72.17
2023-04-06T01:37:36.049Z,72.17
2023-04-06T01:40:07.579Z,72.47
2023-04-06T01:42:45.228Z,71.99
2023-04-06T01:45:17.843Z,71.95
2023-04-06T01:47:47.132Z,72.51
2023-04-06T01:50:15.647Z,72.67
2023-04-06T01:52:47.696Z,71.88
2023-04-06T01:55:16.977Z,72.16
2023-04-06T01:58:07.945Z,72.53
2023-04-06T02:00:39.670Z,72.42
2023-04-06T02:03:08.051Z,73.06
2023-04-06T02:05:39.106Z,73.34
2023-04-06T02:08:19.673Z,73.78
2023-04-06T02:10:48.215Z,73.19
2023-04-06T02:13:26.333Z,72.70
2023-04-06T02:15:55.248Z,73.00
2023-04-06T02:18:23.669Z,72.71
2023-04-06T02:20:52.103Z,72.91
2023-04-06T02:23:20.719Z,73.62
2023-04-06T02:25:48.738Z,73.03
2023-04-06T02:28:16.758Z,72.97
2023-04-06T02:30:44.714Z,73.54
2023-04-06T02:33:13.297Z,72.85
2023-04-06T02:35:46.151Z,73.13
2023-04-06T02:38:14.319Z,74.44
2023-04-06T02:40:42.300Z,73.89
2023-04-06T02:43:25.981Z,72.99
2023-04-06T02:46:02.311Z,74.06
2023-04-06T02:48:32.937Z,74.81
2023-04-06T02:51:01.208Z,74.09
2023-04-06T02:56:08.700Z,73.88
2023-04-06T02:58:47.266Z,74.65
2023-04-06T03:01:16.182Z,73.98
2023-04-06T03:03:44.858Z,73.76
2023-04-06T03:06:20.194Z,73.26
2023-04-06T03:08:50.383Z,73.05
2023-04-06T03:11:18.473Z,74.03
2023-04-06T03:13:46.697Z,73.82
2023-04-06T03:16:14.823Z,73.24
2023-04-06T03:18:45.846Z,72.99
2023-04-06T03:21:17.939Z,73.41
2023-04-06T03:23:52.232Z,72.88
2023-04-06T03:26:20.662Z,72.79
2023-04-06T03:28:48.592Z,73.32
2023-04-06T03:31:17.777Z,73.17
2023-04-06T03:33:52.105Z,72.91
2023-04-06T03:36:24.946Z,73.59
2023-04-06T03:38:54.887Z,72.58
2023-04-06T03:41:23.117Z,72.76
2023-04-06T03:44:01.040Z,72.87
2023-04-06T03:46:29.176Z,72.07
2023-04-06T03:48:59.677Z,72.96
2023-04-06T03:51:28.887Z,72.46
2023-04-06T03:53:56.877Z,72.09
2023-04-06T03:56:24.996Z,71.55
2023-04-06T03:58:54.795Z,71.71
2023-04-06T04:01:23.074Z,71.67
2023-04-06T04:03:52.780Z,70.34
2023-04-06T04:06:20.959Z,70.46
2023-04-06T04:08:48.907Z,70.52
2023-04-06T04:11:17.119Z,72.06
2023-04-06T04:13:47.766Z,71.00
2023-04-06T04:16:16.159Z,70.86
2023-04-06T04:18:44.928Z,69.96
2023-04-06T04:21:12.864Z,70.78
2023-04-06T04:23:41.118Z,69.23
2023-04-06T04:26:09.734Z,69.25
2023-04-06T04:28:37.877Z,70.50
2023-04-06T04:31:05.889Z,69.81
2023-04-06T04:33:36.176Z,70.11
2023-04-06T04:36:11.350Z,70.91
2023-04-06T04:38:43.147Z,69.94
2023-04-06T04:41:12.077Z,71.00
2023-04-06T04:43:43.405Z,71.40
2023-04-06T04:46:13.504Z,69.32
2023-04-06T04:48:44.306Z,68.92
2023-04-06T04:51:12.297Z,69.39
2023-04-06T04:54:01.085Z,69.17
2023-04-06T04:56:32.267Z,69.08
2023-04-06T04:59:36.850Z,68.13
2023-04-06T05:02:14.004Z,68.60
2023-04-06T05:04:52.130Z,68.12
2023-04-06T05:07:25.128Z,68.26
2023-04-06T05:09:55.872Z,67.37
2023-04-06T05:12:28.476Z,67.19
2023-04-06T05:15:06.317Z,66.95
2023-04-06T05:17:35.223Z,67.09
2023-04-06T05:20:04.000Z,65.68
2023-04-06T05:22:36.709Z,64.90
2023-04-06T05:25:09.603Z,65.57
2023-04-06T05:27:38.712Z,64.21
2023-04-06T05:30:11.868Z,64.00
2023-04-06T05:32:46.893Z,63.48
2023-04-06T05:35:16.057Z,62.68
2023-04-06T05:37:47.565Z,63.13
2023-04-06T05:40:16.664Z,62.90
2023-04-06T05:42:44.607Z,62.47
2023-04-06T05:45:18.006Z,63.74
2023-04-06T05:47:50.223Z,63.48
2023-04-06T05:50:28.091Z,62.93
2023-04-06T05:52:57.837Z,62.81
2023-04-06T05:55:30.975Z,62.04
2023-04-06T05:58:20.064Z,62.39
2023-04-06T06:00:49.903Z,63.20
2023-04-06T06:03:20.807Z,62.20
2023-04-06T06:05:53.541Z,60.71
2023-04-06T06:08:30.888Z,61.43
2023-04-06T06:11:01.369Z,59.96
2023-04-06T06:13:29.487Z,58.80
2023-04-06T06:15:58.301Z,58.82
2023-04-06T06:18:27.596Z,58.48
2023-04-06T06:20:57.235Z,56.17
2023-04-06T06:23:25.139Z,50.72
2023-04-06T06:25:55.585Z,44.14
2023-04-06T06:28:26.535Z,38.76
2023-04-06T06:30:54.621Z,35.56
2023-04-06T06:33:27.450Z,31.48
2023-04-06T06:35:57.133Z,30.29
2023-04-06T06:38:25.244Z,30.69
2023-04-06T06:40:54.502Z,32.97
2023-04-06T06:43:25.027Z,32.23
2023-04-06T06:46:07.746Z,30.65
2023-04-06T06:48:36.117Z,31.45
2023-04-06T06:51:04.296Z,31.52
2023-04-06T06:53:32.389Z,31.72
2023-04-06T06:56:00.619Z,31.95
2023-04-06T06:58:28.610Z,31.37
2023-04-06T07:01:00.511Z,30.27
2023-04-06T07:03:31.219Z,29.70
2023-04-06T07:05:59.232Z,28.29
2023-04-06T07:08:27.410Z,29.69
2023-04-06T07:10:57.697Z,31.57
2023-04-06T07:13:27.977Z,30.43
2023-04-06T07:15:58.792Z,30.16
2023-04-06T07:18:27.069Z,31.25
2023-04-06T07:20:55.302Z,29.38
2023-04-06T07:23:23.653Z,28.68
2023-04-06T07:25:53.606Z,28.51
2023-04-06T07:28:22.000Z,30.36
2023-04-06T07:30:50.044Z,28.57
2023-04-06T07:33:18.641Z,28.45
2023-04-06T07:35:47.618Z,29.95
2023-04-06T07:38:16.406Z,30.51
2023-04-06T07:40:44.750Z,30.45
2023-04-06T07:43:13.066Z,28.07
2023-04-06T07:45:41.264Z,29.60
2023-04-06T07:48:09.534Z,27.96
2023-04-06T07:50:37.885Z,28.20
2023-04-06T07:53:06.924Z,27.97
2023-04-06T07:55:36.565Z,26.66
2023-04-06T07:58:04.576Z,25.81
2023-04-06T08:00:32.999Z,28.79
2023-04-06T08:03:00.952Z,30.09
2023-04-06T08:05:29.144Z,31.83
2023-04-06T08:07:57.119Z,32.44
2023-04-06T08:10:25.245Z,30.53
2023-04-06T08:12:54.067Z,27.41
2023-04-06T08:15:22.449Z,28.01
2023-04-06T08:17:50.536Z,28.10
2023-04-06T08:20:18.590Z,28.23
2023-04-06T08:22:46.777Z,29.74
2023-04-06T08:25:15.130Z,32.35
2023-04-06T08:27:43.117Z,32.92
2023-04-06T08:30:11.482Z,34.03
2023-04-06T08:32:39.714Z,33.79
2023-04-06T08:35:08.134Z,33.33
2023-04-06T08:37:36.206Z,35.54
2023-04-06T08:40:04.696Z,38.21
2023-04-06T08:42:34.799Z,37.07
2023-04-06T08:45:03.326Z,35.66
2023-04-06T08:47:31.453Z,36.82
2023-04-06T08:50:04.460Z,38.18
2023-04-06T08:52:35.230Z,36.50
2023-04-06T08:55:03.387Z,36.81
2023-04-06T08:57:32.449Z,34.57
2023-04-06T09:00:02.553Z,35.05
2023-04-06T09:02:30.614Z,34.43
2023-04-06T09:04:59.274Z,33.25
2023-04-06T09:07:28.440Z,33.80
2023-04-06T09:09:56.426Z,36.33
2023-04-06T09:12:29.524Z,38.11
2023-04-06T09:14:59.113Z,41.12
2023-04-06T09:17:33.943Z,42.04
2023-04-06T09:20:04.039Z,39.39
2023-04-06T09:22:39.115Z,36.56
2023-04-06T09:25:08.088Z,36.63
2023-04-06T09:27:38.338Z,35.01
2023-04-06T09:30:18.011Z,32.78
2023-04-06T09:32:56.967Z,33.30
2023-04-06T09:35:27.801Z,34.18
2023-04-06T09:37:56.628Z,35.29
2023-04-06T09:40:25.644Z,37.17
2023-04-06T09:42:55.594Z,38.16
2023-04-06T09:45:23.633Z,39.18
2023-04-06T09:47:55.312Z,40.69
2023-04-06T09:50:25.924Z,40.52
2023-04-06T09:52:58.148Z,40.96
2023-04-06T09:55:36.344Z,43.17
2023-04-06T09:58:10.742Z,43.88
2023-04-06T10:00:54.524Z,42.80
2023-04-06T10:03:48.968Z,41.41
2023-04-06T10:06:22.328Z,40.84
2023-04-06T10:08:55.390Z,40.52
2023-04-06T10:11:24.221Z,40.96
2023-04-06T10:13:52.525Z,42.84
2023-04-06T10:16:20.705Z,41.32
2023-04-06T10:18:55.674Z,43.13
2023-04-06T10:21:28.041Z,42.58
2023-04-06T10:24:00.873Z,42.32
2023-04-06T10:26:29.243Z,40.68
2023-04-06T10:29:05.109Z,41.33
2023-04-06T10:31:33.864Z,42.33
2023-04-06T10:34:03.843Z,42.67
2023-04-06T10:36:36.062Z,42.47
2023-04-06T10:39:06.030Z,42.67
2023-04-06T10:41:42.462Z,44.87
2023-04-06T10:44:21.744Z,44.42
2023-04-06T10:47:02.066Z,42.15
2023-04-06T10:49:30.203Z,42.09
2023-04-06T10:51:59.803Z,41.50
2023-04-06T10:54:29.176Z,43.40
2023-04-06T10:56:57.787Z,42.26
2023-04-06T10:59:28.724Z,42.69
2023-04-06T11:01:57.224Z,42.38
2023-04-06T11:04:26.697Z,42.11
2023-04-06T11:06:56.279Z,42.82
2023-04-06T11:09:28.536Z,44.39
2023-04-06T11:11:57.429Z,42.47
2023-04-06T11:14:25.425Z,43.76
2023-04-06T11:16:53.657Z,44.66
2023-04-06T11:19:21.861Z,44.24
2023-04-06T11:21:50.946Z,44.42
2023-04-06T11:24:26.212Z,42.39
2023-04-06T11:26:56.444Z,43.31
2023-04-06T11:29:26.722Z,43.67
2023-04-06T11:31:59.815Z,43.74
2023-04-06T11:34:30.196Z,46.13
2023-04-06T11:37:00.637Z,45.29
2023-04-06T11:39:29.838Z,47.04
2023-04-06T11:42:03.581Z,45.05
2023-04-06T11:44:39.973Z,44.79
2023-04-06T11:47:10.189Z,44.58
2023-04-06T11:49:43.232Z,46.12
2023-04-06T11:52:20.278Z,46.19
2023-04-06T11:54:50.604Z,46.78
2023-04-06T11:57:20.725Z,46.04
2023-04-06T11:59:48.960Z,46.81
2023-04-06T12:02:17.191Z,45.44
2023-04-06T12:04:46.097Z,46.78
2023-04-06T12:07:14.191Z,46.34
2023-04-06T12:09:44.521Z,48.29
2023-04-06T12:12:12.606Z,48.16
2023-04-06T12:14:40.671Z,47.65
2023-04-06T12:17:08.955Z,47.55
2023-04-06T12:19:37.095Z,47.92
2023-04-06T12:22:05.679Z,48.06
2023-04-06T12:24:34.293Z,48.54
2023-04-06T12:27:09.556Z,47.30
2023-04-06T12:29:39.646Z,48.05
2023-04-06T12:32:07.501Z,47.21
2023-04-06T12:34:36.070Z,45.59
2023-04-06T12:37:04.387Z,45.90
2023-04-06T12:39:32.868Z,46.42
2023-04-06T12:42:00.927Z,45.34
2023-04-06T12:44:28.921Z,41.83
2023-04-06T12:46:57.514Z,42.11
2023-04-06T12:49:25.773Z,40.13
2023-04-06T12:51:54.536Z,42.28
2023-04-06T12:54:22.852Z,42.58
2023-04-06T12:56:50.951Z,42.46
2023-04-06T12:59:19.347Z,44.70
2023-04-06T13:01:48.133Z,43.78
2023-04-06T13:04:16.474Z,43.76
2023-04-06T13:06:44.495Z,46.60
2023-04-06T13:09:12.865Z,45.03
2023-04-06T13:11:42.598Z,46.72
2023-04-06T13:14:11.113Z,44.72
2023-04-06T13:16:39.264Z,44.24
2023-04-06T13:19:07.817Z,44.45
2023-04-06T13:21:35.891Z,46.00
2023-04-06T13:24:04.146Z,43.83
2023-04-06T13:26:32.071Z,45.03
2023-04-06T13:29:02.017Z,45.32
2023-04-06T13:31:30.770Z,44.50
2023-04-06T13:33:58.931Z,44.89
2023-04-06T13:36:28.043Z,44.73
2023-04-06T13:38:56.896Z,44.31
2023-04-06T13:41:27.678Z,44.54
2023-04-06T13:43:56.336Z,45.24
2023-04-06T13:46:25.518Z,45.70
2023-04-06T13:48:56.137Z,44.30
2023-04-06T13:51:24.304Z,43.52
2023-04-06T13:53:54.204Z,42.51
2023-04-06T13:56:22.415Z,42.25
2023-04-06T13:58:50.372Z,43.33
2023-04-06T14:01:18.761Z,42.53
2023-04-06T14:03:49.006Z,42.74
2023-04-06T14:08:48.806Z,42.81
2023-04-06T14:11:17.547Z,44.63
2023-04-06T14:13:46.030Z,44.70
2023-04-06T14:16:14.661Z,46.09
2023-04-06T14:18:44.096Z,44.27
2023-04-06T14:21:12.394Z,44.73
2023-04-06T14:23:40.873Z,43.26
2023-04-06T14:26:09.944Z,43.80
2023-04-06T14:28:40.505Z,43.44
2023-04-06T14:31:16.778Z,44.05
2023-04-06T14:33:46.540Z,44.78
2023-04-06T14:36:15.441Z,45.01
2023-04-06T14:38:45.216Z,45.45
2023-04-06T14:41:21.143Z,45.17
2023-04-06T14:43:49.830Z,45.94
2023-04-06T14:46:18.178Z,46.24
2023-04-06T14:48:47.601Z,45.47
2023-04-06T14:51:16.266Z,46.35
2023-04-06T14:53:45.067Z,45.37
2023-04-06T14:56:13.453Z,44.96
2023-04-06T14:58:42.315Z,45.70
2023-04-06T15:01:10.954Z,45.26
2023-04-06T15:03:39.656Z,45.65
2023-04-06T15:06:16.559Z,45.81
2023-04-06T15:08:45.978Z,47.60
2023-04-06T15:11:14.663Z,45.50
2023-04-06T15:13:43.775Z,46.50
2023-04-06T15:16:12.906Z,46.64
2023-04-06T15:18:42.010Z,46.33
2023-04-06T15:21:10.256Z,47.34
2023-04-06T15:23:38.916Z,47.01
2023-04-06T15:26:07.235Z,46.88
2023-04-06T15:28:35.711Z,47.40
2023-04-06T15:31:07.447Z,47.58
2023-04-06T15:33:36.181Z,48.09
2023-04-06T15:36:10.170Z,47.10
2023-04-06T15:38:38.910Z,47.59
2023-04-06T15:41:07.299Z,49.58
2023-04-06T15:43:36.096Z,49.09
2023-04-06T15:46:04.784Z,49.60
2023-04-06T15:48:35.140Z,51.01
2023-04-06T15:51:03.824Z,51.13
2023-04-06T15:53:32.973Z,51.22
2023-04-06T15:56:02.135Z,51.68
2023-04-06T15:58:30.708Z,51.99
2023-04-06T16:00:58.801Z,51.74
2023-04-06T16:03:27.469Z,51.24
2023-04-06T16:06:08.089Z,50.93
2023-04-06T16:08:39.570Z,51.98
2023-04-06T16:11:07.510Z,52.60
2023-04-06T16:13:36.536Z,52.98
2023-04-06T16:16:05.959Z,53.21
2023-04-06T16:18:36.190Z,53.91
2023-04-06T16:21:05.666Z,53.17
2023-04-06T16:23:34.259Z,54.94
2023-04-06T16:26:02.691Z,53.92
2023-04-06T16:28:34.008Z,53.70
2023-04-06T16:31:02.075Z,54.30
2023-04-06T16:33:30.043Z,55.05
2023-04-06T16:35:58.423Z,55.47
2023-04-06T16:38:30.327Z,56.06
2023-04-06T16:41:02.552Z,57.29
2023-04-06T16:43:30.545Z,56.63
2023-04-06T16:45:58.559Z,56.93
2023-04-06T16:48:26.718Z,56.72
2023-04-06T16:50:55.827Z,57.07
2023-04-06T16:53:23.759Z,58.38
2023-04-06T16:55:51.750Z,57.81
2023-04-06T16:58:19.783Z,58.33
2023-04-06T17:00:47.956Z,57.94
2023-04-06T17:03:16.102Z,58.17
2023-04-06T17:05:45.512Z,58.76
2023-04-06T17:08:13.488Z,57.58
2023-04-06T17:10:47.002Z,58.61
2023-04-06T17:13:26.647Z,57.44
2023-04-06T17:15:54.580Z,56.79
2023-04-06T17:18:22.548Z,57.20
2023-04-06T17:20:50.667Z,57.56
2023-04-06T17:23:18.724Z,58.58
2023-04-06T17:25:46.812Z,57.15
2023-04-06T17:28:14.844Z,56.94
2023-04-06T17:30:43.012Z,57.01
2023-04-06T17:33:11.121Z,55.73
2023-04-06T17:35:39.164Z,56.40
2023-04-06T17:38:08.422Z,55.37
2023-04-06T17:40:37.876Z,55.92
2023-04-06T17:43:05.891Z,54.80
2023-04-06T17:45:33.978Z,55.66
2023-04-06T17:48:02.052Z,55.97
2023-04-06T17:50:39.285Z,54.41
2023-04-06T17:53:08.741Z,55.32
2023-04-06T17:55:37.170Z,55.68
2023-04-06T17:58:05.929Z,54.14
2023-04-06T18:00:34.443Z,53.95
2023-04-06T18:03:03.180Z,53.96
2023-04-06T18:05:31.611Z,54.53
2023-04-06T18:08:00.022Z,55.37
2023-04-06T18:10:28.471Z,54.46
2023-04-06T18:12:57.558Z,55.62
2023-04-06T18:15:27.099Z,53.68
2023-04-06T18:17:55.993Z,53.58
2023-04-06T18:20:24.493Z,54.07
2023-04-06T18:22:53.178Z,52.60
2023-04-06T18:25:21.737Z,53.88
2023-04-06T18:27:51.110Z,53.80
2023-04-06T18:30:20.466Z,53.40
2023-04-06T18:32:49.077Z,52.41
2023-04-06T18:35:17.052Z,52.99
2023-04-06T18:37:45.402Z,53.62
2023-04-06T18:40:46.890Z,54.18
2023-04-06T18:43:16.347Z,53.50
2023-04-06T18:45:45.138Z,53.24
2023-04-06T18:48:14.422Z,53.92
2023-04-06T18:50:52.198Z,52.69
2023-04-06T18:53:21.522Z,52.53
2023-04-06T18:55:51.465Z,51.87
2023-04-06T18:58:19.982Z,53.26
2023-04-06T19:00:48.550Z,54.47
2023-04-06T19:03:18.645Z,52.72
2023-04-06T19:05:48.929Z,53.01
2023-04-06T19:08:17.235Z,52.18
2023-04-06T19:10:45.862Z,51.73
2023-04-06T19:13:14.842Z,52.72
2023-04-06T19:15:43.321Z,51.77
2023-04-06T19:18:12.138Z,52.29
2023-04-06T19:20:40.236Z,50.38
2023-04-06T19:23:09.749Z,51.46
2023-04-06T19:25:39.389Z,50.32
2023-04-06T19:28:09.324Z,50.05
2023-04-06T19:30:38.164Z,49.79
2023-04-06T19:33:06.311Z,50.39
2023-04-06T19:35:34.615Z,50.60
2023-04-06T19:38:02.810Z,51.26
2023-04-06T19:40:31.057Z,50.67
2023-04-06T19:42:59.576Z,50.44
2023-04-06T19:45:30.098Z,51.66
2023-04-06T19:47:58.687Z,50.75
2023-04-06T19:50:27.213Z,52.30
2023-04-06T19:52:56.672Z,50.58
2023-04-06T19:55:25.149Z,51.25
2023-04-06T19:57:53.333Z,49.86
2023-04-06T20:00:21.846Z,50.35
2023-04-06T20:02:50.092Z,49.49
2023-04-06T20:05:18.544Z,50.89
2023-04-06T20:07:47.938Z,50.21
2023-04-06T20:10:17.084Z,49.98
2023-04-06T20:12:45.305Z,50.36
2023-04-06T20:15:13.470Z,51.12
2023-04-06T20:17:43.112Z,49.79
2023-04-06T20:20:12.354Z,51.54
2023-04-06T20:22:42.100Z,51.22
2023-04-06T20:25:11.868Z,51.13
2023-04-06T20:27:40.234Z,50.18
2023-04-06T20:30:09.271Z,49.51
2023-04-06T20:32:38.808Z,49.11
2023-04-06T20:35:06.653Z,49.67
2023-04-06T20:37:38.089Z,48.41
2023-04-06T20:40:09.531Z,49.74
2023-04-06T20:42:37.640Z,48.60
2023-04-06T20:45:06.975Z,48.87
2023-04-06T20:47:35.224Z,48.11
2023-04-06T20:50:04.168Z,48.00
2023-04-06T20:52:32.377Z,48.45
2023-04-06T20:55:01.533Z,49.20
2023-04-06T20:57:29.488Z,48.23
2023-04-06T20:59:57.249Z,49.27
2023-04-06T21:02:25.609Z,47.81
2023-04-06T21:04:53.829Z,47.82
2023-04-06T21:07:22.262Z,47.87
2023-04-06T21:09:50.939Z,47.66
2023-04-06T21:12:19.754Z,47.98
2023-04-06T21:14:47.925Z,48.68
2023-04-06T21:17:15.979Z,48.80
2023-04-06T21:19:43.914Z,48.93
2023-04-06T21:22:12.134Z,51.75
2023-04-06T21:24:42.092Z,51.05
2023-04-06T21:27:13.174Z,50.80
2023-04-06T21:29:41.095Z,50.22
2023-04-06T21:32:09.090Z,51.26
2023-04-06T21:34:36.996Z,50.38
2023-04-06T21:37:05.063Z,51.70
2023-04-06T21:39:33.125Z,51.76
2023-04-06T21:42:01.024Z,50.22
2023-04-06T21:44:31.032Z,51.18
2023-04-06T21:46:59.665Z,49.43
2023-04-06T21:49:27.610Z,49.61
2023-04-06T21:51:55.553Z,50.37
2023-04-06T21:54:23.555Z,50.59
2023-04-06T21:56:51.508Z,50.18
2023-04-06T21:59:20.924Z,50.96
2023-04-06T22:17:02.017Z,51.83
2023-04-06T22:19:30.329Z,51.68
2023-04-06T22:21:58.188Z,51.20
2023-04-06T22:24:26.822Z,52.24
2023-04-06T22:26:54.734Z,52.35
2023-04-06T22:29:23.034Z,53.03
2023-04-06T22:31:51.000Z,53.71
2023-04-06T22:34:19.152Z,52.04
2023-04-06T22:36:47.388Z,51.35
2023-04-06T22:39:15.945Z,50.12
2023-04-06T22:41:43.959Z,52.27
2023-04-06T22:44:11.874Z,51.21
2023-04-06T22:46:39.789Z,50.92
2023-04-06T22:49:07.716Z,50.76
2023-04-06T22:51:35.734Z,50.81
2023-04-06T22:54:03.703Z,51.28
2023-04-06T22:56:31.570Z,51.79
2023-04-06T22:58:59.557Z,51.77
2023-04-06T23:01:27.453Z,52.90
2023-04-06T23:03:56.775Z,50.66
2023-04-06T23:06:24.853Z,51.21
2023-04-06T23:08:52.620Z,50.78
2023-04-06T23:11:21.374Z,51.26
2023-04-06T23:13:49.286Z,50.61
2023-04-06T23:16:17.257Z,51.37
2023-04-06T23:18:45.658Z,51.15
2023-04-06T23:21:13.783Z,52.25
2023-04-06T23:23:41.786Z,53.34
2023-04-06T23:26:09.809Z,50.85
2023-04-06T23:28:37.782Z,52.17
2023-04-06T23:31:06.243Z,51.24
2023-04-06T23:33:34.119Z,50.77
2023-04-06T23:36:02.312Z,53.35
2023-04-06T23:38:30.638Z,52.50
2023-04-06T23:40:58.546Z,51.52
2023-04-06T23:43:26.745Z,53.34
2023-04-06T23:45:54.682Z,53.32
2023-04-06T23:48:22.829Z,54.02
2023-04-06T23:50:50.903Z,53.33
2023-04-06T23:53:18.930Z,53.82
2023-04-06T23:55:46.871Z,54.21
2023-04-06T23:58:15.054Z,54.12
